createdAt,value
2017-07-18T00:00:52.658Z,3.23
2017-07-18T00:03:20.199Z,2.97
2017-07-18T00:05:48.493Z,2.63
2017-07-18T00:08:16.036Z,2.80
2017-07-18T00:10:43.560Z,2.90
2017-07-18T00:13:11.874Z,3.30
2017-07-18T00:15:39.403Z,3.37
2017-07-18T00:18:06.957Z,2.90
2017-07-18T00:20:35.272Z,5.37
2017-07-18T00:23:02.803Z,3.40
2017-07-18T00:25:30.341Z,3.23
2017-07-18T00:27:57.864Z,3.40
2017-07-18T00:30:25.403Z,3.30
2017-07-18T00:32:52.975Z,4.30
2017-07-18T00:35:20.519Z,3.70
2017-07-18T00:37:48.042Z,4.20
2017-07-18T00:40:15.581Z,3.27
2017-07-18T00:42:43.106Z,2.90
2017-07-18T00:45:10.657Z,3.17
2017-07-18T00:47:38.941Z,3.10
2017-07-18T00:50:06.496Z,3.47
2017-07-18T00:52:34.021Z,3.93
2017-07-18T00:55:01.544Z,3.60
2017-07-18T00:57:29.846Z,3.03
2017-07-18T00:59:57.370Z,2.87
2017-07-18T01:02:24.916Z,2.53
2017-07-18T01:04:52.438Z,2.70
2017-07-18T01:07:19.971Z,2.63
2017-07-18T01:09:47.500Z,1.90
2017-07-18T01:12:15.042Z,2.10
2017-07-18T01:14:43.336Z,2.00
2017-07-18T01:17:10.886Z,1.97
2017-07-18T01:19:38.407Z,2.53
2017-07-18T01:22:05.935Z,2.90
2017-07-18T01:24:34.248Z,2.40
2017-07-18T01:27:01.770Z,3.00
2017-07-18T01:29:29.304Z,3.13
2017-07-18T01:31:57.583Z,2.07
2017-07-18T01:34:25.129Z,2.20
2017-07-18T01:36:52.659Z,2.33
2017-07-18T01:39:20.208Z,2.93
2017-07-18T01:41:48.492Z,2.37
2017-07-18T01:44:16.008Z,2.53
2017-07-18T01:46:44.321Z,2.90
2017-07-18T01:49:11.838Z,3.20
2017-07-18T01:51:39.379Z,2.60
2017-07-18T01:54:06.903Z,3.00
2017-07-18T01:56:34.442Z,2.40
2017-07-18T01:59:01.979Z,3.17
2017-07-18T02:01:29.524Z,2.57
2017-07-18T02:03:57.042Z,2.90
2017-07-18T02:06:24.585Z,2.83
2017-07-18T02:08:52.108Z,3.13
2017-07-18T02:11:19.640Z,2.27
2017-07-18T02:13:47.183Z,2.47
2017-07-18T02:16:14.708Z,3.10
2017-07-18T02:18:43.022Z,2.10
2017-07-18T02:21:11.333Z,2.40
2017-07-18T02:23:39.641Z,1.97
2017-07-18T02:26:07.159Z,2.60
2017-07-18T02:28:34.704Z,1.97
2017-07-18T02:31:02.228Z,2.50
2017-07-18T02:33:29.792Z,2.20
2017-07-18T02:35:57.314Z,2.30
2017-07-18T02:38:24.835Z,2.00
2017-07-18T02:40:52.379Z,2.07
2017-07-18T02:43:19.904Z,1.83
2017-07-18T02:45:48.216Z,2.60
2017-07-18T02:48:15.744Z,2.57
2017-07-18T02:50:44.042Z,3.13
2017-07-18T02:53:12.334Z,3.77
2017-07-18T02:55:39.871Z,4.00
2017-07-18T02:58:07.382Z,2.50
2017-07-18T03:00:34.924Z,2.87
2017-07-18T03:03:02.447Z,2.30
2017-07-18T03:05:30.007Z,2.50
2017-07-18T03:07:57.531Z,3.00
2017-07-18T03:10:25.047Z,2.50
2017-07-18T03:12:53.351Z,3.37
2017-07-18T03:15:20.870Z,3.40
2017-07-18T03:17:49.180Z,4.83
2017-07-18T03:20:17.467Z,5.83
2017-07-18T03:22:45.007Z,6.27
2017-07-18T03:25:13.295Z,4.97
2017-07-18T03:27:40.856Z,5.47
2017-07-18T03:30:08.379Z,7.17
2017-07-18T03:32:36.684Z,4.50
2017-07-18T03:35:04.208Z,3.50
2017-07-18T03:37:31.722Z,3.73
2017-07-18T03:39:59.259Z,4.17
2017-07-18T03:42:27.548Z,4.20
2017-07-18T03:44:55.087Z,5.13
2017-07-18T03:47:23.366Z,5.20
2017-07-18T03:49:50.904Z,5.03
2017-07-18T03:52:18.444Z,7.33
2017-07-18T03:54:45.984Z,4.67
2017-07-18T03:57:14.270Z,5.70
2017-07-18T03:59:41.822Z,4.40
2017-07-18T04:02:10.108Z,3.77
2017-07-18T04:04:37.626Z,4.80
2017-07-18T04:07:05.170Z,4.37
2017-07-18T04:09:32.683Z,5.77
2017-07-18T04:12:00.218Z,5.60
2017-07-18T04:14:27.744Z,5.30
2017-07-18T04:16:55.279Z,5.80
2017-07-18T04:19:22.801Z,4.80
2017-07-18T04:21:50.339Z,4.37
2017-07-18T04:24:17.851Z,5.30
2017-07-18T04:26:45.391Z,4.77
2017-07-18T04:29:12.905Z,6.60
2017-07-18T04:31:40.450Z,7.20
2017-07-18T04:34:07.968Z,6.77
2017-07-18T04:36:36.250Z,5.70
2017-07-18T04:39:04.551Z,6.93
2017-07-18T04:41:32.082Z,7.47
2017-07-18T04:43:59.614Z,6.87
2017-07-18T04:46:27.139Z,7.03
2017-07-18T04:48:54.679Z,6.40
2017-07-18T04:51:22.204Z,6.60
2017-07-18T04:53:49.744Z,5.60
2017-07-18T04:56:17.272Z,7.77
2017-07-18T04:58:44.832Z,8.07
2017-07-18T05:01:13.115Z,6.90
2017-07-18T05:03:40.638Z,7.10
2017-07-18T05:06:08.174Z,7.00
2017-07-18T05:08:35.689Z,7.03
2017-07-18T05:11:03.999Z,6.97
2017-07-18T05:13:31.518Z,6.80
2017-07-18T05:15:59.063Z,5.77
2017-07-18T05:18:27.352Z,5.43
2017-07-18T05:20:54.894Z,6.20
2017-07-18T05:23:22.414Z,6.60
2017-07-18T05:25:49.938Z,6.77
2017-07-18T05:28:17.476Z,6.70
2017-07-18T05:30:45.760Z,7.30
2017-07-18T05:33:13.303Z,6.73
2017-07-18T05:35:40.823Z,6.67
2017-07-18T05:38:09.132Z,6.63
2017-07-18T05:40:36.649Z,7.27
2017-07-18T05:43:04.941Z,7.17
2017-07-18T05:45:32.480Z,6.50
2017-07-18T05:47:59.994Z,6.50
2017-07-18T05:50:27.525Z,6.37
2017-07-18T05:52:55.065Z,7.10
2017-07-18T05:55:22.609Z,7.10
2017-07-18T05:57:50.123Z,5.70
2017-07-18T06:00:17.667Z,6.37
2017-07-18T06:02:45.186Z,6.73
2017-07-18T06:05:13.509Z,7.23
2017-07-18T06:07:41.787Z,6.37
2017-07-18T06:10:09.314Z,7.00
2017-07-18T06:12:37.623Z,6.47
2017-07-18T06:15:05.142Z,6.10
2017-07-18T06:17:33.445Z,6.17
2017-07-18T06:20:00.963Z,7.30
2017-07-18T06:22:28.505Z,6.43
2017-07-18T06:24:56.020Z,5.70
2017-07-18T06:27:23.563Z,5.90
2017-07-18T06:29:51.855Z,6.23
2017-07-18T06:32:19.397Z,6.40
2017-07-18T06:34:46.918Z,6.80
2017-07-18T06:37:14.457Z,6.47
2017-07-18T06:39:41.987Z,7.37
2017-07-18T06:42:09.504Z,6.33
2017-07-18T06:44:37.040Z,5.87
2017-07-18T06:47:04.564Z,6.50
2017-07-18T06:49:32.098Z,6.10
2017-07-18T06:51:59.606Z,6.20
2017-07-18T06:54:27.149Z,7.50
2017-07-18T06:56:54.676Z,6.40
2017-07-18T06:59:22.213Z,6.40
2017-07-18T07:01:50.555Z,7.10
2017-07-18T07:04:18.108Z,6.73
2017-07-18T07:06:45.626Z,6.23
2017-07-18T07:09:13.147Z,6.73
2017-07-18T07:11:40.683Z,7.17
2017-07-18T07:14:08.212Z,6.00
2017-07-18T07:16:35.762Z,6.50
2017-07-18T07:19:03.274Z,5.60
2017-07-18T07:21:30.835Z,6.20
2017-07-18T07:23:58.365Z,6.13
2017-07-18T07:26:25.904Z,6.03
2017-07-18T07:28:53.422Z,5.83
2017-07-18T07:31:20.963Z,5.87
2017-07-18T07:33:48.482Z,6.60
2017-07-18T07:36:16.009Z,7.70
2017-07-18T07:38:43.551Z,6.07
2017-07-18T07:41:11.059Z,5.17
2017-07-18T07:43:38.602Z,6.10
2017-07-18T07:46:06.117Z,4.90
2017-07-18T07:48:33.657Z,6.43
2017-07-18T07:51:01.175Z,6.20
2017-07-18T07:53:29.473Z,7.00
2017-07-18T07:55:56.996Z,5.60
2017-07-18T07:58:24.515Z,6.90
2017-07-18T08:00:52.054Z,6.10
2017-07-18T08:03:19.570Z,5.00
2017-07-18T08:05:47.118Z,6.50
2017-07-18T08:08:15.404Z,6.27
2017-07-18T08:10:42.948Z,6.13
2017-07-18T08:13:11.234Z,6.23
2017-07-18T08:15:38.785Z,5.90
2017-07-18T08:18:06.303Z,5.60
2017-07-18T08:20:33.853Z,6.80
2017-07-18T08:23:01.380Z,6.17
2017-07-18T08:25:28.930Z,6.73
2017-07-18T08:27:56.459Z,5.70
2017-07-18T08:30:23.978Z,6.27
2017-07-18T08:32:51.515Z,6.53
2017-07-18T08:35:19.034Z,6.80
2017-07-18T08:37:46.572Z,6.37
2017-07-18T08:40:14.094Z,6.77
2017-07-18T08:42:41.629Z,6.47
2017-07-18T08:45:09.910Z,6.17
2017-07-18T08:47:37.441Z,6.80
2017-07-18T08:50:04.950Z,5.80
2017-07-18T08:52:32.491Z,6.73
2017-07-18T08:55:00.007Z,6.93
2017-07-18T08:57:27.547Z,5.83
2017-07-18T08:59:55.834Z,6.10
2017-07-18T09:02:23.349Z,6.53
2017-07-18T09:04:51.651Z,5.77
2017-07-18T09:07:19.172Z,5.67
2017-07-18T09:09:46.717Z,6.27
2017-07-18T09:12:14.239Z,6.77
2017-07-18T09:14:42.544Z,6.17
2017-07-18T09:17:10.060Z,6.50
2017-07-18T09:19:37.599Z,6.40
2017-07-18T09:22:05.122Z,8.50
2017-07-18T09:24:32.670Z,6.43
2017-07-18T09:27:00.199Z,7.40
2017-07-18T09:29:27.727Z,6.33
2017-07-18T09:31:55.267Z,6.27
2017-07-18T09:34:23.551Z,5.90
2017-07-18T09:36:51.873Z,6.60
2017-07-18T09:39:19.391Z,5.87
2017-07-18T09:41:47.689Z,5.70
2017-07-18T09:44:15.212Z,5.67
2017-07-18T09:46:43.521Z,7.40
2017-07-18T09:49:11.045Z,6.07
2017-07-18T09:51:38.582Z,5.83
2017-07-18T09:54:06.109Z,5.97
2017-07-18T09:56:33.679Z,5.73
2017-07-18T09:59:01.221Z,5.80
2017-07-18T10:01:28.738Z,5.57
2017-07-18T10:03:56.581Z,5.17
2017-07-18T10:06:24.866Z,6.03
2017-07-18T10:08:52.404Z,5.00
2017-07-18T10:11:19.918Z,5.57
2017-07-18T10:13:47.463Z,5.13
2017-07-18T10:16:14.981Z,4.80
2017-07-18T10:18:43.271Z,5.67
2017-07-18T10:21:11.574Z,5.50
2017-07-18T10:23:39.096Z,5.90
2017-07-18T10:26:06.631Z,5.20
2017-07-18T10:28:34.147Z,5.77
2017-07-18T10:31:02.456Z,5.37
2017-07-18T10:33:29.970Z,4.93
2017-07-18T10:35:57.510Z,4.90
2017-07-18T10:38:25.027Z,5.00
2017-07-18T10:40:52.561Z,4.53
2017-07-18T10:43:20.079Z,5.40
2017-07-18T10:45:47.617Z,4.70
2017-07-18T10:48:15.133Z,4.97
2017-07-18T10:50:42.671Z,5.83
2017-07-18T10:53:10.210Z,6.80
2017-07-18T10:55:38.494Z,5.60
2017-07-18T10:58:06.047Z,5.97
2017-07-18T11:00:33.564Z,5.30
2017-07-18T11:03:01.876Z,4.93
2017-07-18T11:05:29.393Z,5.87
2017-07-18T11:07:56.935Z,7.00
2017-07-18T11:10:24.450Z,5.30
2017-07-18T11:12:51.995Z,5.60
2017-07-18T11:15:19.510Z,5.30
2017-07-18T11:17:47.027Z,4.63
2017-07-18T11:20:14.562Z,4.43
2017-07-18T11:22:42.086Z,5.10
2017-07-18T11:25:09.623Z,5.20
2017-07-18T11:27:37.149Z,4.67
2017-07-18T11:30:04.690Z,6.83
2017-07-18T11:32:32.216Z,5.23
2017-07-18T11:34:59.754Z,5.00
2017-07-18T11:37:27.270Z,5.30
2017-07-18T11:39:54.834Z,5.00
2017-07-18T11:42:22.358Z,5.43
2017-07-18T11:44:49.883Z,5.50
2017-07-18T11:47:17.421Z,4.40
2017-07-18T11:49:44.938Z,4.17
2017-07-18T11:52:13.237Z,3.37
2017-07-18T11:54:40.751Z,5.20
2017-07-18T11:57:08.293Z,3.87
2017-07-18T11:59:35.811Z,5.00
2017-07-18T12:02:03.345Z,4.53
2017-07-18T12:04:30.862Z,4.57
2017-07-18T12:06:58.393Z,4.67
2017-07-18T12:09:25.906Z,3.60
2017-07-18T12:11:53.438Z,4.40
2017-07-18T12:14:20.960Z,4.30
2017-07-18T12:16:48.502Z,4.10
2017-07-18T12:19:16.018Z,4.97
2017-07-18T12:21:43.539Z,4.63
2017-07-18T12:24:11.087Z,4.10
2017-07-18T12:26:38.611Z,4.60
2017-07-18T12:29:06.159Z,4.83
2017-07-18T12:31:33.677Z,4.20
2017-07-18T12:34:01.217Z,4.60
2017-07-18T12:36:29.501Z,4.90
2017-07-18T12:38:57.043Z,3.97
2017-07-18T12:41:24.598Z,5.10
2017-07-18T12:43:52.145Z,4.50
2017-07-18T12:46:19.664Z,4.13
2017-07-18T12:48:47.192Z,3.83
2017-07-18T12:51:14.769Z,4.53
2017-07-18T12:53:42.312Z,4.70
2017-07-18T12:56:09.885Z,4.27
2017-07-18T12:58:37.398Z,4.50
2017-07-18T13:01:05.703Z,4.40
2017-07-18T13:03:33.219Z,4.90
2017-07-18T13:06:00.763Z,4.00
2017-07-18T13:08:28.282Z,3.40
2017-07-18T13:10:55.816Z,3.83
2017-07-18T13:13:24.099Z,3.67
2017-07-18T13:15:51.642Z,4.37
2017-07-18T13:18:19.162Z,4.40
2017-07-18T13:20:46.682Z,3.70
2017-07-18T13:23:14.224Z,4.67
2017-07-18T13:25:41.742Z,4.10
2017-07-18T13:28:09.299Z,3.97
2017-07-18T13:30:36.831Z,3.97
2017-07-18T13:33:04.367Z,4.30
2017-07-18T13:35:31.895Z,3.60
2017-07-18T13:37:59.437Z,4.07
2017-07-18T13:40:26.960Z,4.33
2017-07-18T13:42:54.509Z,4.17
2017-07-18T13:45:22.031Z,3.67
2017-07-18T13:47:50.316Z,4.40
2017-07-18T13:50:17.863Z,4.30
2017-07-18T13:52:45.387Z,3.70
2017-07-18T13:55:12.923Z,7.30
2017-07-18T13:57:40.444Z,4.73
2017-07-18T14:00:07.984Z,4.23
2017-07-18T14:02:35.506Z,4.03
2017-07-18T14:05:03.056Z,3.90
2017-07-18T14:07:30.580Z,3.53
2017-07-18T14:09:58.870Z,3.90
2017-07-18T14:12:26.413Z,4.20
2017-07-18T14:14:53.936Z,4.17
2017-07-18T14:17:22.250Z,4.80
2017-07-18T14:19:49.770Z,4.30
2017-07-18T14:22:18.081Z,4.37
2017-07-18T14:24:45.600Z,4.83
2017-07-18T14:27:13.146Z,4.20
2017-07-18T14:29:40.662Z,4.40
2017-07-18T14:32:08.181Z,4.27
2017-07-18T14:34:35.713Z,4.50
2017-07-18T14:37:03.234Z,4.90
2017-07-18T14:39:30.778Z,4.50
2017-07-18T14:41:58.313Z,5.80
2017-07-18T14:44:25.851Z,4.30
2017-07-18T14:46:53.370Z,4.70
2017-07-18T14:49:20.905Z,4.90
2017-07-18T14:51:48.418Z,4.40
2017-07-18T14:54:16.731Z,4.47
2017-07-18T14:56:44.262Z,4.87
2017-07-18T14:59:11.780Z,4.10
2017-07-18T15:01:39.313Z,4.40
2017-07-18T15:04:06.833Z,4.70
2017-07-18T15:06:34.366Z,4.50
2017-07-18T15:09:01.883Z,4.70
2017-07-18T15:11:29.418Z,4.60
2017-07-18T15:13:56.938Z,4.30
2017-07-18T15:16:24.470Z,4.27
2017-07-18T15:18:51.989Z,4.10
2017-07-18T15:21:19.550Z,4.60
2017-07-18T15:23:47.074Z,4.73
2017-07-18T15:26:14.597Z,3.87
2017-07-18T15:28:42.130Z,4.17
2017-07-18T15:31:09.657Z,4.50
2017-07-18T15:33:37.191Z,4.53
2017-07-18T15:36:04.706Z,4.50
2017-07-18T15:38:32.239Z,5.13
2017-07-18T15:40:59.757Z,4.90
2017-07-18T15:43:27.302Z,5.47
2017-07-18T15:45:54.822Z,6.13
2017-07-18T15:48:22.383Z,4.23
2017-07-18T15:50:49.898Z,5.20
2017-07-18T15:53:17.414Z,4.73
2017-07-18T15:55:44.954Z,4.67
2017-07-18T15:58:12.471Z,5.10
2017-07-18T16:00:40.005Z,5.20
2017-07-18T16:03:07.517Z,6.10
2017-07-18T16:05:35.058Z,5.63
2017-07-18T16:08:02.573Z,5.57
2017-07-18T16:10:30.114Z,5.60
2017-07-18T16:12:57.634Z,5.23
2017-07-18T16:15:25.177Z,5.97
2017-07-18T16:17:52.691Z,5.90
2017-07-18T16:20:20.206Z,6.30
2017-07-18T16:22:48.518Z,5.57
2017-07-18T16:25:16.046Z,5.93
2017-07-18T16:27:43.584Z,5.97
2017-07-18T16:30:11.112Z,5.77
2017-07-18T16:32:38.651Z,6.10
2017-07-18T16:35:06.166Z,5.10
2017-07-18T16:37:33.719Z,6.40
2017-07-18T16:40:01.235Z,6.77
2017-07-18T16:42:28.755Z,5.43
2017-07-18T16:44:56.302Z,6.83
2017-07-18T16:47:23.824Z,6.77
2017-07-18T16:49:51.361Z,5.60
2017-07-18T16:52:19.641Z,6.10
2017-07-18T16:54:47.946Z,5.60
2017-07-18T16:57:15.476Z,5.67
2017-07-18T16:59:43.786Z,6.50
2017-07-18T17:02:11.307Z,6.13
2017-07-18T17:04:38.825Z,5.83
2017-07-18T17:07:07.131Z,5.37
2017-07-18T17:09:34.647Z,7.33
2017-07-18T17:12:02.179Z,5.57
2017-07-18T17:14:29.712Z,4.90
2017-07-18T17:16:57.252Z,5.93
2017-07-18T17:19:24.777Z,5.80
2017-07-18T17:21:52.320Z,5.20
2017-07-18T17:24:19.842Z,6.33
2017-07-18T17:26:47.385Z,5.93
2017-07-18T17:29:14.908Z,5.77
2017-07-18T17:31:42.430Z,6.00
2017-07-18T17:34:09.972Z,5.33
2017-07-18T17:36:37.494Z,6.00
2017-07-18T17:39:05.036Z,5.60
2017-07-18T17:41:32.551Z,6.53
2017-07-18T17:44:00.086Z,6.80
2017-07-18T17:46:27.620Z,6.43
2017-07-18T17:48:55.922Z,6.17
2017-07-18T17:51:23.441Z,6.73
2017-07-18T17:53:50.986Z,6.50
2017-07-18T17:56:18.512Z,6.10
2017-07-18T17:58:46.061Z,7.23
2017-07-18T18:01:14.374Z,7.30
2017-07-18T18:03:41.889Z,7.50
2017-07-18T18:06:09.422Z,7.37
2017-07-18T18:08:36.939Z,7.60
2017-07-18T18:11:04.477Z,7.37
2017-07-18T18:13:32.003Z,7.90
2017-07-18T18:15:59.547Z,8.93
2017-07-18T18:18:27.079Z,7.27
2017-07-18T18:20:54.626Z,7.47
2017-07-18T18:23:22.905Z,8.80
2017-07-18T18:25:50.419Z,7.77
2017-07-18T18:28:18.722Z,7.90
2017-07-18T18:30:46.244Z,8.60
2017-07-18T18:33:14.547Z,7.03
2017-07-18T18:35:42.070Z,7.63
2017-07-18T18:38:09.602Z,8.50
2017-07-18T18:40:37.895Z,8.00
2017-07-18T18:43:05.450Z,7.60
2017-07-18T18:45:32.970Z,8.10
2017-07-18T18:48:00.491Z,8.20
2017-07-18T18:50:28.031Z,7.37
2017-07-18T18:52:56.322Z,8.30
2017-07-18T18:55:23.862Z,8.10
2017-07-18T18:57:52.147Z,7.93
2017-07-18T19:00:20.450Z,9.23
2017-07-18T19:02:47.969Z,8.83
2017-07-18T19:05:15.509Z,10.00
2017-07-18T19:07:43.026Z,9.23
2017-07-18T19:10:10.582Z,9.70
2017-07-18T19:12:38.110Z,10.00
2017-07-18T19:15:05.629Z,9.37
2017-07-18T19:17:33.165Z,9.33
2017-07-18T19:20:00.687Z,9.20
2017-07-18T19:22:28.230Z,9.13
2017-07-18T19:24:55.756Z,9.43
2017-07-18T19:27:23.294Z,9.23
2017-07-18T19:29:50.819Z,8.97
2017-07-18T19:32:19.123Z,8.90
2017-07-18T19:34:46.651Z,9.63
2017-07-18T19:37:15.000Z,9.13
2017-07-18T19:39:42.522Z,8.57
2017-07-18T19:42:10.042Z,9.17
2017-07-18T19:44:38.345Z,9.90
2017-07-18T19:47:05.875Z,9.70
2017-07-18T19:49:33.420Z,9.93
2017-07-18T19:52:00.938Z,9.50
2017-07-18T19:54:28.478Z,8.93
2017-07-18T19:56:56.003Z,9.17
2017-07-18T19:59:24.307Z,9.60
2017-07-18T20:01:51.841Z,10.47
2017-07-18T20:04:19.385Z,8.63
2017-07-18T20:06:47.675Z,9.30
2017-07-18T20:09:15.960Z,7.73
2017-07-18T20:11:43.503Z,8.47
2017-07-18T20:14:11.790Z,8.33
2017-07-18T20:16:39.329Z,9.00
2017-07-18T20:19:06.844Z,8.60
2017-07-18T20:21:34.382Z,7.20
2017-07-18T20:24:01.897Z,7.70
2017-07-18T20:26:29.444Z,7.33
2017-07-18T20:28:56.958Z,6.73
2017-07-18T20:31:24.918Z,8.50
2017-07-18T20:33:52.474Z,7.13
2017-07-18T20:36:20.754Z,8.10
2017-07-18T20:38:49.063Z,8.33
2017-07-18T20:41:16.580Z,9.23
2017-07-18T20:43:44.110Z,8.60
2017-07-18T20:46:11.623Z,7.67
2017-07-18T20:48:39.930Z,7.43
2017-07-18T20:51:07.463Z,7.40
2017-07-18T20:53:34.998Z,7.03
2017-07-18T20:56:02.519Z,6.97
2017-07-18T20:58:30.073Z,7.50
2017-07-18T21:00:57.593Z,7.10
2017-07-18T21:03:25.119Z,7.43
2017-07-18T21:05:52.658Z,7.67
2017-07-18T21:08:20.178Z,8.17
2017-07-18T21:10:47.713Z,7.80
2017-07-18T21:13:15.240Z,9.20
2017-07-18T21:15:42.781Z,7.87
2017-07-18T21:18:11.070Z,7.73
2017-07-18T21:20:39.367Z,8.30
2017-07-18T21:23:06.887Z,8.37
2017-07-18T21:25:34.436Z,8.10
2017-07-18T21:28:01.954Z,7.60
2017-07-18T21:30:30.237Z,7.30
2017-07-18T21:32:58.535Z,7.73
2017-07-18T21:35:26.054Z,10.70
2017-07-18T21:37:53.598Z,10.40
2017-07-18T21:40:21.122Z,9.73
2017-07-18T21:42:48.667Z,10.63
2017-07-18T21:45:16.192Z,8.90
2017-07-18T21:47:44.509Z,9.77
2017-07-18T21:50:12.039Z,9.60
2017-07-18T21:52:40.329Z,10.00
2017-07-18T21:55:07.893Z,10.40
2017-07-18T21:57:35.428Z,11.67
2017-07-18T22:00:02.970Z,10.20
2017-07-18T22:02:30.495Z,10.80
2017-07-18T22:04:58.047Z,9.83
2017-07-18T22:07:25.569Z,9.70
2017-07-18T22:09:53.125Z,11.03
2017-07-18T22:12:20.671Z,9.40
2017-07-18T22:14:48.187Z,8.63
2017-07-18T22:17:16.499Z,10.17
2017-07-18T22:19:44.027Z,9.17
2017-07-18T22:22:11.575Z,10.33
2017-07-18T22:24:39.102Z,10.50
2017-07-18T22:27:07.429Z,10.23
2017-07-18T22:29:34.945Z,8.50
2017-07-18T22:32:02.481Z,9.63
2017-07-18T22:34:30.772Z,9.17
2017-07-18T22:36:58.325Z,9.00
2017-07-18T22:39:26.610Z,10.17
2017-07-18T22:41:54.142Z,10.00
2017-07-18T22:44:21.678Z,10.20
2017-07-18T22:46:49.201Z,10.40
2017-07-18T22:49:16.747Z,9.43
2017-07-18T22:51:44.271Z,9.87
2017-07-18T22:54:11.811Z,9.60
2017-07-18T22:56:39.330Z,8.10
2017-07-18T22:59:07.642Z,8.03
2017-07-18T23:01:35.162Z,8.27
2017-07-18T23:04:02.686Z,8.73
2017-07-18T23:06:30.225Z,9.20
2017-07-18T23:08:58.502Z,8.17
2017-07-18T23:11:26.039Z,8.70
2017-07-18T23:13:53.563Z,8.40
2017-07-18T23:16:21.098Z,8.33
2017-07-18T23:18:48.611Z,7.60
2017-07-18T23:21:16.174Z,9.00
2017-07-18T23:23:43.691Z,9.50
2017-07-18T23:26:11.229Z,8.97
2017-07-18T23:28:38.748Z,8.53
2017-07-18T23:31:06.271Z,8.93
2017-07-18T23:33:33.818Z,9.00
2017-07-18T23:36:01.335Z,8.80
2017-07-18T23:38:28.883Z,10.60
2017-07-18T23:40:56.399Z,7.73
2017-07-18T23:43:23.944Z,8.87
2017-07-18T23:45:51.466Z,8.90
2017-07-18T23:48:19.012Z,8.97
2017-07-18T23:50:46.535Z,9.30
2017-07-18T23:53:14.054Z,9.60
2017-07-18T23:55:41.593Z,10.53
2017-07-18T23:58:09.122Z,10.47
